createdAt,value
2024-05-09T00:00:54.854Z,7.50
2024-05-09T00:03:45.015Z,8.90
2024-05-09T00:06:16.748Z,5.70
2024-05-09T00:08:48.814Z,5.20
2024-05-09T00:11:23.204Z,8.70
2024-05-09T00:13:54.788Z,6.50
2024-05-09T00:16:26.080Z,6.20
2024-05-09T00:18:57.499Z,6.90
2024-05-09T00:23:58.845Z,6.50
2024-05-09T00:26:30.367Z,8.20
2024-05-09T00:31:31.667Z,8.70
2024-05-09T00:34:03.422Z,7.40
2024-05-09T00:36:34.969Z,5.80
2024-05-09T00:39:06.317Z,6.20
2024-05-09T00:41:37.729Z,6.40
2024-05-09T00:44:09.382Z,9.00
2024-05-09T00:49:12.577Z,7.60
2024-05-09T00:51:44.649Z,8.50
2024-05-09T00:54:16.814Z,9.50
2024-05-09T00:56:49.491Z,7.90
2024-05-09T00:59:22.589Z,8.70
2024-05-09T01:01:54.575Z,8.30
2024-05-09T01:04:26.084Z,9.30
2024-05-09T01:07:32.743Z,8.20
2024-05-09T01:10:09.077Z,9.70
2024-05-09T01:12:43.369Z,8.90
2024-05-09T01:15:14.807Z,7.10
2024-05-09T01:17:47.143Z,8.90
2024-05-09T01:20:22.952Z,7.50
2024-05-09T01:23:00.864Z,6.30
2024-05-09T01:25:32.795Z,6.80
2024-05-09T01:28:04.395Z,8.10
2024-05-09T01:30:37.506Z,7.80
2024-05-09T01:33:11.779Z,9.10
2024-05-09T01:35:44.452Z,6.00
2024-05-09T01:38:17.261Z,7.40
2024-05-09T01:40:49.451Z,7.20
2024-05-09T01:43:20.778Z,5.70
2024-05-09T01:45:52.092Z,9.20
2024-05-09T01:48:23.543Z,7.60
2024-05-09T01:50:55.076Z,8.30
2024-05-09T01:53:26.480Z,7.10
2024-05-09T01:55:57.867Z,7.80
2024-05-09T01:58:29.916Z,6.80
2024-05-09T02:01:01.356Z,9.00
2024-05-09T02:03:32.883Z,8.50
2024-05-09T02:06:04.661Z,8.10
2024-05-09T02:11:09.605Z,9.30
2024-05-09T02:13:41.920Z,8.20
2024-05-09T02:16:14.506Z,7.10
2024-05-09T02:18:45.973Z,8.90
2024-05-09T02:21:17.420Z,8.40
2024-05-09T02:26:19.026Z,8.50
2024-05-09T02:28:50.506Z,8.10
2024-05-09T02:31:21.881Z,8.40
2024-05-09T02:33:54.072Z,9.90
2024-05-09T02:36:25.765Z,6.00
2024-05-09T02:38:57.130Z,6.70
2024-05-09T02:41:28.557Z,6.70
2024-05-09T02:43:59.940Z,9.30
2024-05-09T02:46:31.422Z,6.90
2024-05-09T02:51:32.928Z,6.70
2024-05-09T02:54:04.335Z,8.70
2024-05-09T02:56:35.685Z,8.50
2024-05-09T02:59:07.042Z,7.30
2024-05-09T03:01:38.498Z,10.40
2024-05-09T03:04:09.970Z,8.30
2024-05-09T03:06:44.050Z,6.40
2024-05-09T03:09:15.331Z,7.80
2024-05-09T03:11:47.222Z,7.20
2024-05-09T03:14:20.172Z,9.60
2024-05-09T03:16:51.628Z,7.70
2024-05-09T03:19:23.150Z,8.30
2024-05-09T03:21:54.788Z,6.80
2024-05-09T03:24:26.104Z,7.60
2024-05-09T03:26:57.410Z,7.90
2024-05-09T03:29:28.838Z,8.50
2024-05-09T03:32:01.223Z,12.50
2024-05-09T03:34:32.802Z,7.80
2024-05-09T03:37:04.238Z,7.70
2024-05-09T03:39:35.690Z,10.30
2024-05-09T03:42:08.108Z,11.80
2024-05-09T03:44:39.465Z,16.60
2024-05-09T03:47:10.825Z,8.80
2024-05-09T03:49:42.150Z,8.00
2024-05-09T03:52:13.596Z,10.30
2024-05-09T03:54:48.364Z,9.30
2024-05-09T03:57:19.704Z,9.70
2024-05-09T03:59:51.007Z,9.50
2024-05-09T04:02:22.477Z,8.00
2024-05-09T04:04:54.011Z,8.60
2024-05-09T04:07:25.369Z,8.90
2024-05-09T04:09:56.681Z,8.90
2024-05-09T04:12:28.996Z,8.90
2024-05-09T04:15:00.480Z,12.00
2024-05-09T04:17:32.127Z,10.50
2024-05-09T04:20:05.127Z,8.10
2024-05-09T04:22:38.045Z,8.60
2024-05-09T04:25:09.797Z,10.30
2024-05-09T04:30:18.800Z,6.90
2024-05-09T04:32:57.733Z,8.90
2024-05-09T04:35:29.381Z,9.30
2024-05-09T04:38:01.230Z,10.60
2024-05-09T04:40:35.678Z,9.20
2024-05-09T04:43:14.729Z,8.50
2024-05-09T04:45:46.187Z,9.80
2024-05-09T04:48:17.779Z,8.80
2024-05-09T04:50:49.526Z,7.40
2024-05-09T04:53:21.075Z,8.40
2024-05-09T04:55:52.674Z,13.80
2024-05-09T05:00:54.209Z,9.50
2024-05-09T05:05:56.554Z,7.40
2024-05-09T05:08:28.165Z,11.40
2024-05-09T05:10:59.599Z,8.70
2024-05-09T05:13:36.715Z,8.00
2024-05-09T05:16:10.362Z,9.00
2024-05-09T05:18:41.779Z,6.50
2024-05-09T05:21:13.502Z,9.50
2024-05-09T05:23:45.253Z,7.70
2024-05-09T05:26:20.425Z,6.10
2024-05-09T05:28:52.853Z,7.30
2024-05-09T05:31:24.192Z,7.60
2024-05-09T05:33:55.622Z,10.60
2024-05-09T05:36:27.005Z,8.40
2024-05-09T05:38:58.363Z,7.40
2024-05-09T05:41:29.805Z,8.30
2024-05-09T05:46:31.335Z,5.00
2024-05-09T05:49:02.838Z,8.30
2024-05-09T05:54:04.092Z,7.30
2024-05-09T05:56:35.504Z,4.70
2024-05-09T06:01:36.891Z,6.10
2024-05-09T06:04:08.399Z,6.40
2024-05-09T06:06:39.839Z,7.20
2024-05-09T06:09:11.190Z,6.20
2024-05-09T06:11:43.493Z,5.00
2024-05-09T06:14:16.104Z,5.20
2024-05-09T06:16:47.692Z,5.70
2024-05-09T06:19:19.569Z,5.30
2024-05-09T06:21:51.125Z,5.40
2024-05-09T06:24:22.620Z,4.70
2024-05-09T06:29:23.964Z,5.60
2024-05-09T06:31:57.760Z,7.10
2024-05-09T06:34:31.236Z,5.80
2024-05-09T06:37:02.802Z,6.20
2024-05-09T06:42:04.259Z,5.70
2024-05-09T06:44:35.675Z,4.60
2024-05-09T06:49:37.907Z,4.10
2024-05-09T06:52:11.701Z,3.50
2024-05-09T06:54:43.230Z,4.30
2024-05-09T06:57:14.605Z,3.70
2024-05-09T07:02:15.954Z,4.80
2024-05-09T07:04:47.434Z,3.60
2024-05-09T07:07:18.811Z,5.30
2024-05-09T07:12:20.064Z,4.40
2024-05-09T07:14:52.343Z,5.30
2024-05-09T07:17:23.920Z,4.50
2024-05-09T07:19:55.571Z,3.90
2024-05-09T07:22:27.965Z,4.70
2024-05-09T07:24:59.296Z,5.60
2024-05-09T07:32:30.680Z,7.20
2024-05-09T07:35:02.401Z,4.20
2024-05-09T07:37:33.798Z,4.20
2024-05-09T07:40:07.381Z,5.80
2024-05-09T07:42:38.992Z,3.90
2024-05-09T07:45:29.658Z,4.00
2024-05-09T07:52:32.654Z,5.20
2024-05-09T07:53:39.930Z,4.70
2024-05-09T07:56:18.113Z,4.80
2024-05-09T07:58:53.331Z,5.60
2024-05-09T08:01:27.003Z,4.80
2024-05-09T08:03:58.938Z,5.80
2024-05-09T08:06:30.571Z,5.20
2024-05-09T08:09:05.472Z,4.60
2024-05-09T08:11:40.232Z,4.60
2024-05-09T08:14:11.564Z,4.90
2024-05-09T08:16:43.321Z,3.70
2024-05-09T08:19:14.635Z,3.80
2024-05-09T08:21:46.120Z,5.00
2024-05-09T08:24:17.519Z,4.50
2024-05-09T08:26:48.953Z,4.60
2024-05-09T08:29:20.414Z,4.90
2024-05-09T08:31:55.744Z,3.50
2024-05-09T08:34:27.380Z,3.40
2024-05-09T08:37:03.743Z,4.50
2024-05-09T08:39:41.503Z,5.10
2024-05-09T08:42:18.192Z,2.70
2024-05-09T08:44:51.196Z,3.00
2024-05-09T08:47:22.798Z,4.00
2024-05-09T08:49:58.746Z,3.70
2024-05-09T08:52:30.271Z,3.20
2024-05-09T08:55:01.716Z,3.30
2024-05-09T08:57:34.115Z,4.60
2024-05-09T09:00:14.859Z,2.60
2024-05-09T09:02:53.040Z,4.60
2024-05-09T09:05:32.411Z,4.40
2024-05-09T09:08:09.035Z,5.30
2024-05-09T09:10:43.319Z,4.50
2024-05-09T09:13:14.843Z,4.70
2024-05-09T09:15:58.692Z,3.10
2024-05-09T09:18:33.518Z,7.60
2024-05-09T09:21:05.361Z,4.30
2024-05-09T09:23:36.738Z,4.70
2024-05-09T09:26:08.320Z,3.70
2024-05-09T09:28:41.484Z,3.30
2024-05-09T09:31:12.969Z,3.70
2024-05-09T09:33:45.735Z,6.30
2024-05-09T09:36:18.594Z,4.70
2024-05-09T09:38:52.013Z,2.70
2024-05-09T09:41:30.730Z,5.10
2024-05-09T09:44:04.449Z,5.70
2024-05-09T09:46:36.879Z,3.60
2024-05-09T09:49:10.775Z,9.10
2024-05-09T09:51:44.574Z,4.30
2024-05-09T09:54:16.313Z,2.90
2024-05-09T09:56:48.635Z,4.30
2024-05-09T09:59:20.122Z,4.70
2024-05-09T10:01:51.612Z,3.40
2024-05-09T10:04:24.911Z,5.00
2024-05-09T10:07:00.588Z,3.10
2024-05-09T10:09:34.438Z,4.10
2024-05-09T10:12:14.437Z,5.30
2024-05-09T10:14:51.134Z,3.00
2024-05-09T10:17:23.041Z,4.00
2024-05-09T10:20:14.832Z,3.50
2024-05-09T10:22:53.090Z,3.40
2024-05-09T10:25:25.038Z,4.90
2024-05-09T10:27:58.414Z,4.00
2024-05-09T10:30:36.089Z,5.00
2024-05-09T10:33:13.154Z,5.50
2024-05-09T10:35:53.840Z,3.40
2024-05-09T10:38:26.370Z,3.30
2024-05-09T10:41:00.817Z,4.40
2024-05-09T10:43:34.388Z,4.50
2024-05-09T10:46:07.688Z,4.10
2024-05-09T10:48:40.670Z,5.90
2024-05-09T10:51:12.347Z,3.80
2024-05-09T10:53:45.473Z,3.00
2024-05-09T10:56:17.699Z,5.50
2024-05-09T10:58:51.877Z,5.30
2024-05-09T11:01:23.468Z,2.80
2024-05-09T11:03:57.485Z,3.30
2024-05-09T11:06:30.157Z,2.90
2024-05-09T11:09:01.590Z,3.20
2024-05-09T11:11:33.609Z,3.90
2024-05-09T11:14:14.185Z,7.80
2024-05-09T11:16:45.569Z,4.50
2024-05-09T11:19:19.566Z,3.50
2024-05-09T11:21:54.933Z,3.80
2024-05-09T11:24:26.358Z,3.20
2024-05-09T11:26:58.409Z,5.30
2024-05-09T11:29:40.297Z,2.40
2024-05-09T11:32:14.816Z,3.80
2024-05-09T11:34:46.191Z,3.80
2024-05-09T11:37:17.740Z,4.60
2024-05-09T11:39:49.563Z,3.30
2024-05-09T11:42:22.378Z,3.50
2024-05-09T11:44:53.657Z,4.70
2024-05-09T11:47:25.225Z,2.70
2024-05-09T11:49:57.223Z,6.50
2024-05-09T11:52:28.744Z,3.50
2024-05-09T11:55:01.231Z,4.50
2024-05-09T11:57:32.868Z,5.10
2024-05-09T12:00:05.688Z,4.70
2024-05-09T12:02:38.845Z,4.50
2024-05-09T12:05:10.404Z,5.10
2024-05-09T12:07:43.347Z,4.60
2024-05-09T12:10:19.619Z,4.50
2024-05-09T12:12:56.426Z,3.10
2024-05-09T12:15:27.924Z,4.00
2024-05-09T12:18:02.719Z,3.00
2024-05-09T12:20:39.190Z,4.30
2024-05-09T12:23:12.087Z,2.80
2024-05-09T12:25:43.496Z,4.10
2024-05-09T12:28:15.647Z,5.10
2024-05-09T12:30:49.063Z,6.90
2024-05-09T12:33:21.938Z,3.80
2024-05-09T12:35:53.500Z,5.40
2024-05-09T12:38:24.869Z,5.30
2024-05-09T12:40:56.488Z,9.00
2024-05-09T12:43:28.015Z,3.00
2024-05-09T12:46:00.489Z,3.80
2024-05-09T12:48:32.119Z,2.80
2024-05-09T12:51:03.509Z,3.00
2024-05-09T12:53:34.785Z,3.40
2024-05-09T12:58:47.104Z,7.10
2024-05-09T13:01:18.567Z,4.10
2024-05-09T13:03:50.490Z,4.40
2024-05-09T13:06:22.117Z,5.20
2024-05-09T13:08:53.460Z,3.60
2024-05-09T13:11:24.803Z,3.20
2024-05-09T13:13:57.024Z,3.90
2024-05-09T13:16:28.446Z,4.00
2024-05-09T13:18:59.953Z,3.20
2024-05-09T13:21:31.383Z,2.10
2024-05-09T13:24:03.181Z,4.80
2024-05-09T13:26:34.704Z,2.90
2024-05-09T13:29:06.102Z,4.30
2024-05-09T13:31:37.517Z,3.50
2024-05-09T13:34:09.051Z,4.30
2024-05-09T13:36:41.419Z,5.80
2024-05-09T13:39:13.002Z,4.50
2024-05-09T13:41:44.401Z,6.80
2024-05-09T13:44:15.806Z,3.60
2024-05-09T13:46:47.228Z,4.20
2024-05-09T13:49:18.677Z,3.90
2024-05-09T13:51:50.155Z,3.90
2024-05-09T13:54:22.719Z,3.60
2024-05-09T13:56:54.650Z,4.90
2024-05-09T13:59:25.978Z,6.10
2024-05-09T14:01:57.391Z,3.70
2024-05-09T14:04:29.136Z,4.80
2024-05-09T14:07:00.704Z,3.60
2024-05-09T14:09:32.187Z,3.50
2024-05-09T14:12:03.521Z,4.20
2024-05-09T14:14:35.665Z,4.00
2024-05-09T14:17:07.469Z,4.10
2024-05-09T14:19:38.894Z,4.10
2024-05-09T14:22:10.257Z,4.60
2024-05-09T14:24:42.147Z,3.10
2024-05-09T14:27:13.592Z,3.90
2024-05-09T14:29:44.928Z,3.50
2024-05-09T14:32:16.600Z,4.50
2024-05-09T14:34:48.028Z,3.50
2024-05-09T14:37:19.592Z,4.30
2024-05-09T14:39:51.020Z,4.30
2024-05-09T14:42:22.692Z,3.90
2024-05-09T14:44:54.265Z,5.20
2024-05-09T14:47:26.299Z,3.60
2024-05-09T14:49:57.827Z,5.10
2024-05-09T14:52:29.163Z,4.30
2024-05-09T14:55:01.171Z,5.50
2024-05-09T14:57:32.916Z,6.40
2024-05-09T15:00:08.980Z,5.50
2024-05-09T15:02:43.023Z,4.70
2024-05-09T15:05:14.695Z,4.20
2024-05-09T15:07:46.967Z,4.70
2024-05-09T15:10:26.569Z,4.80
2024-05-09T15:13:05.842Z,4.20
2024-05-09T15:15:39.154Z,3.70
2024-05-09T15:18:11.158Z,3.60
2024-05-09T15:20:44.895Z,3.90
2024-05-09T15:23:16.440Z,4.00
2024-05-09T15:25:48.350Z,5.50
2024-05-09T15:28:19.877Z,4.20
2024-05-09T15:30:51.412Z,4.00
2024-05-09T15:33:22.834Z,4.80
2024-05-09T15:35:54.577Z,4.10
2024-05-09T15:38:27.471Z,4.50
2024-05-09T15:40:59.437Z,3.70
2024-05-09T15:43:31.227Z,4.20
2024-05-09T15:46:02.930Z,3.90
2024-05-09T15:48:34.390Z,5.10
2024-05-09T15:51:08.154Z,7.70
2024-05-09T15:53:39.513Z,5.80
2024-05-09T15:56:11.884Z,4.50
2024-05-09T15:58:43.666Z,4.40
2024-05-09T16:01:15.405Z,4.90
2024-05-09T16:03:47.004Z,2.60
2024-05-09T16:06:18.779Z,4.10
2024-05-09T16:08:50.158Z,3.60
2024-05-09T16:11:21.573Z,3.70
2024-05-09T16:13:52.940Z,6.60
2024-05-09T16:16:25.193Z,3.60
2024-05-09T16:18:56.786Z,6.10
2024-05-09T16:21:28.356Z,5.10
2024-05-09T16:24:01.383Z,4.00
2024-05-09T16:26:33.088Z,3.70
2024-05-09T16:29:04.573Z,5.40
2024-05-09T16:31:35.991Z,4.70
2024-05-09T16:34:07.462Z,3.50
2024-05-09T16:36:38.868Z,8.40
2024-05-09T16:39:10.199Z,3.70
2024-05-09T16:41:41.827Z,4.50
2024-05-09T16:44:13.244Z,2.70
2024-05-09T16:46:45.216Z,3.10
2024-05-09T16:49:17.043Z,6.30
2024-05-09T16:51:48.466Z,4.10
2024-05-09T16:54:19.772Z,4.10
2024-05-09T16:56:51.496Z,3.70
2024-05-09T16:59:22.935Z,5.40
2024-05-09T17:01:54.435Z,7.60
2024-05-09T17:04:26.234Z,3.80
2024-05-09T17:06:58.523Z,5.40
2024-05-09T17:09:30.000Z,6.10
2024-05-09T17:12:01.472Z,7.40
2024-05-09T17:14:33.233Z,3.80
2024-05-09T17:17:07.036Z,5.60
2024-05-09T17:19:40.579Z,11.70
2024-05-09T17:22:12.454Z,22.20
2024-05-09T17:24:44.111Z,7.20
2024-05-09T17:27:15.831Z,26.20
2024-05-09T17:29:47.502Z,58.10
2024-05-09T17:32:18.947Z,12.20
2024-05-09T17:34:50.294Z,13.80
2024-05-09T17:37:21.894Z,8.60
2024-05-09T17:39:55.248Z,10.70
2024-05-09T17:42:26.632Z,5.30
2024-05-09T17:44:57.953Z,6.60
2024-05-09T17:47:29.394Z,7.70
2024-05-09T17:50:00.912Z,5.80
2024-05-09T17:52:32.646Z,11.90
2024-05-09T17:55:04.131Z,9.80
2024-05-09T17:57:35.749Z,8.00
2024-05-09T18:00:11.823Z,8.80
2024-05-09T18:02:43.600Z,13.20
2024-05-09T18:05:15.347Z,8.20
2024-05-09T18:07:46.899Z,11.90
2024-05-09T18:10:25.437Z,5.70
2024-05-09T18:13:01.469Z,14.20
2024-05-09T18:15:33.294Z,8.00
2024-05-09T18:18:06.588Z,7.20
2024-05-09T18:20:43.640Z,9.10
2024-05-09T18:23:19.480Z,6.80
2024-05-09T18:25:54.496Z,8.20
2024-05-09T18:28:26.367Z,7.80
2024-05-09T18:30:57.815Z,6.60
2024-05-09T18:33:29.391Z,8.40
2024-05-09T18:36:02.020Z,7.20
2024-05-09T18:38:33.601Z,6.90
2024-05-09T18:41:05.157Z,5.90
2024-05-09T18:43:42.293Z,9.50
2024-05-09T18:46:17.092Z,8.40
2024-05-09T18:48:48.670Z,10.50
2024-05-09T18:51:21.100Z,10.80
2024-05-09T18:53:54.729Z,9.30
2024-05-09T18:56:26.830Z,11.40
2024-05-09T18:58:58.140Z,8.40
2024-05-09T19:01:29.689Z,13.70
2024-05-09T19:04:01.583Z,17.30
2024-05-09T19:06:33.337Z,11.80
2024-05-09T19:09:05.679Z,10.50
2024-05-09T19:11:39.864Z,16.60
2024-05-09T19:14:11.275Z,15.60
2024-05-09T19:16:44.214Z,19.30
2024-05-09T19:19:16.155Z,15.30
2024-05-09T19:21:47.850Z,12.90
2024-05-09T19:24:19.296Z,23.10
2024-05-09T19:26:50.753Z,14.20
2024-05-09T19:29:22.617Z,18.70
2024-05-09T19:31:54.041Z,22.80
2024-05-09T19:34:25.538Z,17.60
2024-05-09T19:36:57.117Z,11.40
2024-05-09T19:39:28.451Z,13.50
2024-05-09T19:44:29.748Z,13.20
2024-05-09T19:47:01.162Z,12.40
2024-05-09T19:52:03.001Z,17.20
2024-05-09T19:54:34.687Z,15.80
2024-05-09T19:57:06.670Z,16.20
2024-05-09T19:59:38.038Z,13.90
2024-05-09T20:02:09.697Z,11.70
2024-05-09T20:04:45.135Z,18.60
2024-05-09T20:07:17.102Z,14.50
2024-05-09T20:09:49.224Z,15.20
2024-05-09T20:12:21.059Z,12.90
2024-05-09T20:14:52.736Z,15.00
2024-05-09T20:19:54.657Z,14.60
2024-05-09T20:22:26.167Z,16.00
2024-05-09T20:24:57.999Z,15.30
2024-05-09T20:27:30.333Z,12.80
2024-05-09T20:30:02.383Z,14.60
2024-05-09T20:32:34.343Z,12.30
2024-05-09T20:35:06.550Z,16.40
2024-05-09T20:37:37.861Z,12.40
2024-05-09T20:40:18.299Z,13.80
2024-05-09T20:42:56.496Z,13.90
2024-05-09T20:45:27.841Z,20.00
2024-05-09T20:47:59.310Z,18.10
2024-05-09T20:50:37.820Z,21.50
2024-05-09T20:53:14.553Z,16.00
2024-05-09T20:55:47.112Z,12.70
2024-05-09T21:00:48.695Z,11.70
2024-05-09T21:03:20.679Z,10.30
2024-05-09T21:08:23.257Z,6.20
2024-05-09T21:10:55.393Z,7.30
2024-05-09T21:13:27.181Z,7.00
2024-05-09T21:15:58.859Z,7.40
2024-05-09T21:18:30.280Z,5.90
2024-05-09T21:21:02.151Z,7.70
2024-05-09T21:23:34.454Z,10.00
2024-05-09T21:26:08.220Z,6.50
2024-05-09T21:28:39.683Z,6.70
2024-05-09T21:31:12.163Z,9.40
2024-05-09T21:33:43.772Z,9.60
2024-05-09T21:36:15.410Z,8.20
2024-05-09T21:38:46.712Z,7.10
2024-05-09T21:41:18.076Z,6.90
2024-05-09T21:43:50.613Z,8.30
2024-05-09T21:46:27.714Z,8.10
2024-05-09T21:48:59.200Z,6.30
2024-05-09T21:51:32.140Z,5.40
2024-05-09T21:54:03.603Z,4.40
2024-05-09T21:56:34.912Z,4.90
2024-05-09T21:59:06.645Z,6.00
2024-05-09T22:01:38.042Z,5.70
2024-05-09T22:04:09.513Z,4.60
2024-05-09T22:06:41.147Z,5.70
2024-05-09T22:09:12.613Z,5.70
2024-05-09T22:11:44.041Z,5.60
2024-05-09T22:14:15.354Z,4.70
2024-05-09T22:16:46.765Z,4.90
2024-05-09T22:19:18.750Z,5.90
2024-05-09T22:21:50.675Z,7.40
2024-05-09T22:24:22.113Z,9.00
2024-05-09T22:26:55.233Z,11.10
2024-05-09T22:29:26.592Z,36.30
2024-05-09T22:31:58.457Z,12.00
2024-05-09T22:34:29.946Z,8.40
2024-05-09T22:39:31.566Z,7.70
2024-05-09T22:42:02.928Z,6.10
2024-05-09T22:47:04.455Z,6.60
2024-05-09T22:52:06.388Z,6.40
2024-05-09T22:54:37.733Z,8.00
2024-05-09T22:57:09.105Z,22.60
2024-05-09T22:59:40.591Z,17.60
2024-05-09T23:04:42.043Z,26.60
2024-05-09T23:09:46.990Z,33.70
2024-05-09T23:12:18.435Z,41.00
2024-05-09T23:14:49.989Z,43.50
2024-05-09T23:17:21.628Z,36.80
2024-05-09T23:19:53.036Z,29.30
2024-05-09T23:22:25.137Z,20.40
2024-05-09T23:24:56.560Z,19.80
2024-05-09T23:27:28.379Z,20.70
2024-05-09T23:29:59.778Z,14.60
2024-05-09T23:32:31.495Z,12.10
2024-05-09T23:35:02.934Z,9.10
2024-05-09T23:40:07.011Z,11.60
2024-05-09T23:42:42.874Z,10.90
2024-05-09T23:45:14.761Z,6.50
2024-05-09T23:47:46.423Z,9.10
2024-05-09T23:50:24.002Z,8.80
2024-05-09T23:53:02.805Z,9.40
2024-05-09T23:58:04.977Z,9.20
